sensor_id;sensor_type;location;lat;lon;timestamp;pressure;altitude;pressure_sealevel;temperature;humidity
11621;BME280;5866;49.094;11.900;2024-03-02T00:00:40;95190.88;;;8.91;100.00
11621;BME280;5866;49.094;11.900;2024-03-02T00:03:10;95190.75;;;8.84;100.00
11621;BME280;5866;49.094;11.900;2024-03-02T00:05:40;95197.25;;;8.82;100.00
11621;BME280;5866;49.094;11.900;2024-03-02T00:08:09;95191.94;;;9.04;100.00
11621;BME280;5866;49.094;11.900;2024-03-02T00:10:38;95197.31;;;8.88;100.00
11621;BME280;5866;49.094;11.900;2024-03-02T00:13:07;95190.16;;;8.97;100.00
11621;BME280;5866;49.094;11.900;2024-03-02T00:15:42;95198.72;;;8.53;100.00
11621;BME280;5866;49.094;11.900;2024-03-02T00:18:18;95196.06;;;8.31;100.00
11621;BME280;5866;49.094;11.900;2024-03-02T00:20:46;95200.59;;;8.06;100.00
11621;BME280;5866;49.094;11.900;2024-03-02T00:23:15;95204.22;;;8.05;100.00
11621;BME280;5866;49.094;11.900;2024-03-02T00:25:46;95200.53;;;8.22;100.00
11621;BME280;5866;49.094;11.900;2024-03-02T00:28:17;95194.84;;;8.41;100.00
11621;BME280;5866;49.094;11.900;2024-03-02T00:30:51;95197.03;;;8.38;100.00
11621;BME280;5866;49.094;11.900;2024-03-02T00:33:23;95192.25;;;8.33;100.00
11621;BME280;5866;49.094;11.900;2024-03-02T00:35:51;95189.25;;;8.36;100.00
11621;BME280;5866;49.094;11.900;2024-03-02T00:38:20;95182.88;;;8.53;100.00
11621;BME280;5866;49.094;11.900;2024-03-02T00:40:47;95188.53;;;8.50;100.00
11621;BME280;5866;49.094;11.900;2024-03-02T00:43:47;95184.28;;;8.41;100.00
11621;BME280;5866;49.094;11.900;2024-03-02T00:46:18;95187.69;;;8.11;100.00
11621;BME280;5866;49.094;11.900;2024-03-02T00:48:55;95187.53;;;8.13;100.00
11621;BME280;5866;49.094;11.900;2024-03-02T00:51:25;95186.41;;;8.07;100.00
11621;BME280;5866;49.094;11.900;2024-03-02T00:53:53;95186.88;;;8.11;100.00
11621;BME280;5866;49.094;11.900;2024-03-02T00:56:23;95194.97;;;8.09;100.00
11621;BME280;5866;49.094;11.900;2024-03-02T00:58:51;95194.84;;;8.41;100.00
11621;BME280;5866;49.094;11.900;2024-03-02T01:01:19;95196.38;;;8.28;100.00
11621;BME280;5866;49.094;11.900;2024-03-02T01:03:48;95184.53;;;8.54;100.00
11621;BME280;5866;49.094;11.900;2024-03-02T01:06:17;95191.75;;;8.30;100.00
11621;BME280;5866;49.094;11.900;2024-03-02T01:08:45;95190.97;;;8.29;100.00
11621;BME280;5866;49.094;11.900;2024-03-02T01:11:17;95189.91;;;8.38;100.00
11621;BME280;5866;49.094;11.900;2024-03-02T01:13:45;95195.69;;;8.42;100.00
11621;BME280;5866;49.094;11.900;2024-03-02T01:16:13;95191.19;;;8.42;100.00
11621;BME280;5866;49.094;11.900;2024-03-02T01:18:42;95190.59;;;8.32;100.00
11621;BME280;5866;49.094;11.900;2024-03-02T01:21:09;95194.94;;;8.17;100.00
11621;BME280;5866;49.094;11.900;2024-03-02T01:23:38;95194.75;;;7.80;100.00
11621;BME280;5866;49.094;11.900;2024-03-02T01:26:06;95192.75;;;7.82;100.00
11621;BME280;5866;49.094;11.900;2024-03-02T01:28:34;95197.63;;;7.62;100.00
11621;BME280;5866;49.094;11.900;2024-03-02T01:31:01;95192.53;;;7.53;100.00
11621;BME280;5866;49.094;11.900;2024-03-02T01:33:29;95193.38;;;7.92;100.00
11621;BME280;5866;49.094;11.900;2024-03-02T01:35:57;95196.13;;;8.07;100.00
11621;BME280;5866;49.094;11.900;2024-03-02T01:38:24;95188.94;;;7.92;100.00
11621;BME280;5866;49.094;11.900;2024-03-02T01:40:53;95193.13;;;7.79;100.00
11621;BME280;5866;49.094;11.900;2024-03-02T01:43:23;95188.78;;;7.86;100.00
11621;BME280;5866;49.094;11.900;2024-03-02T01:45:50;95191.47;;;7.78;100.00
11621;BME280;5866;49.094;11.900;2024-03-02T01:48:18;95182.25;;;7.74;100.00
11621;BME280;5866;49.094;11.900;2024-03-02T01:50:46;95190.09;;;7.90;100.00
11621;BME280;5866;49.094;11.900;2024-03-02T01:53:14;95190.97;;;8.13;100.00
11621;BME280;5866;49.094;11.900;2024-03-02T01:55:41;95184.69;;;8.22;100.00
11621;BME280;5866;49.094;11.900;2024-03-02T01:58:10;95182.19;;;8.29;100.00
11621;BME280;5866;49.094;11.900;2024-03-02T02:00:38;95187.19;;;8.16;100.00
11621;BME280;5866;49.094;11.900;2024-03-02T02:03:06;95189.66;;;8.17;100.00
11621;BME280;5866;49.094;11.900;2024-03-02T02:05:34;95189.97;;;8.22;100.00
11621;BME280;5866;49.094;11.900;2024-03-02T02:08:02;95182.03;;;8.30;100.00
11621;BME280;5866;49.094;11.900;2024-03-02T02:10:30;95189.72;;;8.01;100.00
11621;BME280;5866;49.094;11.900;2024-03-02T02:12:58;95185.69;;;8.29;100.00
11621;BME280;5866;49.094;11.900;2024-03-02T02:15:28;95181.69;;;8.33;100.00
11621;BME280;5866;49.094;11.900;2024-03-02T02:17:57;95180.03;;;8.32;100.00
11621;BME280;5866;49.094;11.900;2024-03-02T02:20:26;95183.91;;;8.44;100.00
11621;BME280;5866;49.094;11.900;2024-03-02T02:22:59;95185.22;;;8.10;100.00
11621;BME280;5866;49.094;11.900;2024-03-02T02:25:28;95187.63;;;7.88;100.00
11621;BME280;5866;49.094;11.900;2024-03-02T02:27:56;95190.28;;;8.19;100.00
11621;BME280;5866;49.094;11.900;2024-03-02T02:30:27;95180.56;;;8.20;100.00
11621;BME280;5866;49.094;11.900;2024-03-02T02:32:56;95178.16;;;8.10;100.00
11621;BME280;5866;49.094;11.900;2024-03-02T02:35:24;95183.63;;;8.39;100.00
11621;BME280;5866;49.094;11.900;2024-03-02T02:37:52;95171.81;;;8.27;100.00
11621;BME280;5866;49.094;11.900;2024-03-02T02:40:22;95167.84;;;8.31;100.00
11621;BME280;5866;49.094;11.900;2024-03-02T02:42:50;95169.81;;;8.29;100.00
11621;BME280;5866;49.094;11.900;2024-03-02T02:45:19;95173.81;;;8.25;100.00
11621;BME280;5866;49.094;11.900;2024-03-02T02:47:47;95165.78;;;8.41;100.00
11621;BME280;5866;49.094;11.900;2024-03-02T02:50:14;95166.88;;;8.16;100.00
11621;BME280;5866;49.094;11.900;2024-03-02T02:52:42;95159.59;;;8.26;100.00
11621;BME280;5866;49.094;11.900;2024-03-02T02:55:11;95161.84;;;8.37;100.00
11621;BME280;5866;49.094;11.900;2024-03-02T02:57:41;95168.44;;;8.41;100.00
11621;BME280;5866;49.094;11.900;2024-03-02T03:00:12;95165.38;;;8.52;100.00
11621;BME280;5866;49.094;11.900;2024-03-02T03:02:45;95162.91;;;8.73;100.00
11621;BME280;5866;49.094;11.900;2024-03-02T03:05:14;95166.44;;;8.66;100.00
11621;BME280;5866;49.094;11.900;2024-03-02T03:07:42;95170.50;;;8.54;100.00
11621;BME280;5866;49.094;11.900;2024-03-02T03:10:10;95169.34;;;8.18;100.00
11621;BME280;5866;49.094;11.900;2024-03-02T03:12:40;95166.75;;;8.10;100.00
11621;BME280;5866;49.094;11.900;2024-03-02T03:15:10;95158.06;;;8.32;100.00
11621;BME280;5866;49.094;11.900;2024-03-02T03:17:39;95164.53;;;8.29;100.00
11621;BME280;5866;49.094;11.900;2024-03-02T03:20:07;95170.56;;;8.07;100.00
11621;BME280;5866;49.094;11.900;2024-03-02T03:22:37;95161.41;;;8.26;100.00
11621;BME280;5866;49.094;11.900;2024-03-02T03:25:05;95166.78;;;8.01;100.00
11621;BME280;5866;49.094;11.900;2024-03-02T03:27:34;95163.25;;;8.25;100.00
11621;BME280;5866;49.094;11.900;2024-03-02T03:30:04;95167.19;;;8.29;100.00
11621;BME280;5866;49.094;11.900;2024-03-02T03:32:33;95164.88;;;8.26;100.00
11621;BME280;5866;49.094;11.900;2024-03-02T03:35:01;95166.53;;;8.27;100.00
11621;BME280;5866;49.094;11.900;2024-03-02T03:37:29;95168.09;;;8.06;100.00
11621;BME280;5866;49.094;11.900;2024-03-02T03:40:00;95170.81;;;8.28;100.00
11621;BME280;5866;49.094;11.900;2024-03-02T03:42:29;95178.50;;;7.99;100.00
11621;BME280;5866;49.094;11.900;2024-03-02T03:44:56;95170.41;;;8.39;100.00
11621;BME280;5866;49.094;11.900;2024-03-02T03:47:25;95169.72;;;8.45;100.00
11621;BME280;5866;49.094;11.900;2024-03-02T03:49:53;95168.06;;;8.44;100.00
11621;BME280;5866;49.094;11.900;2024-03-02T03:52:20;95169.91;;;8.66;100.00
11621;BME280;5866;49.094;11.900;2024-03-02T03:54:48;95161.28;;;8.72;100.00
11621;BME280;5866;49.094;11.900;2024-03-02T03:57:16;95168.16;;;8.82;100.00
11621;BME280;5866;49.094;11.900;2024-03-02T03:59:43;95170.66;;;8.98;100.00
11621;BME280;5866;49.094;11.900;2024-03-02T04:02:12;95167.03;;;9.13;100.00
11621;BME280;5866;49.094;11.900;2024-03-02T04:04:41;95163.50;;;9.21;100.00
11621;BME280;5866;49.094;11.900;2024-03-02T04:07:10;95175.31;;;9.33;100.00
11621;BME280;5866;49.094;11.900;2024-03-02T04:09:37;95175.09;;;9.20;100.00
11621;BME280;5866;49.094;11.900;2024-03-02T04:12:05;95180.34;;;9.42;100.00
11621;BME280;5866;49.094;11.900;2024-03-02T04:14:33;95184.59;;;9.29;100.00
11621;BME280;5866;49.094;11.900;2024-03-02T04:17:00;95185.44;;;9.29;100.00
11621;BME280;5866;49.094;11.900;2024-03-02T04:19:28;95182.75;;;9.15;100.00
11621;BME280;5866;49.094;11.900;2024-03-02T04:21:57;95193.69;;;9.12;100.00
11621;BME280;5866;49.094;11.900;2024-03-02T04:24:31;95185.56;;;9.13;100.00
11621;BME280;5866;49.094;11.900;2024-03-02T04:26:58;95189.09;;;9.06;100.00
11621;BME280;5866;49.094;11.900;2024-03-02T04:29:26;95193.34;;;9.15;100.00
11621;BME280;5866;49.094;11.900;2024-03-02T04:31:53;95190.38;;;9.10;100.00
11621;BME280;5866;49.094;11.900;2024-03-02T04:34:21;95196.72;;;9.01;100.00
11621;BME280;5866;49.094;11.900;2024-03-02T04:36:49;95194.16;;;8.93;100.00
11621;BME280;5866;49.094;11.900;2024-03-02T04:39:18;95199.44;;;8.93;100.00
11621;BME280;5866;49.094;11.900;2024-03-02T04:41:46;95200.06;;;9.03;100.00
11621;BME280;5866;49.094;11.900;2024-03-02T04:44:14;95200.84;;;9.03;100.00
11621;BME280;5866;49.094;11.900;2024-03-02T04:46:42;95202.72;;;8.95;100.00
11621;BME280;5866;49.094;11.900;2024-03-02T04:49:09;95200.91;;;9.18;100.00
11621;BME280;5866;49.094;11.900;2024-03-02T04:51:37;95206.78;;;9.05;100.00
11621;BME280;5866;49.094;11.900;2024-03-02T04:54:05;95215.84;;;8.88;100.00
11621;BME280;5866;49.094;11.900;2024-03-02T04:56:33;95215.63;;;8.98;100.00
11621;BME280;5866;49.094;11.900;2024-03-02T04:59:11;95217.47;;;9.12;100.00
11621;BME280;5866;49.094;11.900;2024-03-02T05:01:38;95210.34;;;9.35;100.00
11621;BME280;5866;49.094;11.900;2024-03-02T05:04:06;95212.91;;;9.43;100.00
11621;BME280;5866;49.094;11.900;2024-03-02T05:06:34;95215.41;;;9.22;100.00
11621;BME280;5866;49.094;11.900;2024-03-02T05:09:01;95224.50;;;9.05;100.00
11621;BME280;5866;49.094;11.900;2024-03-02T05:11:29;95221.41;;;9.16;100.00
11621;BME280;5866;49.094;11.900;2024-03-02T05:14:16;95224.00;;;9.24;100.00
11621;BME280;5866;49.094;11.900;2024-03-02T05:16:44;95223.41;;;9.14;100.00
11621;BME280;5866;49.094;11.900;2024-03-02T05:19:11;95222.22;;;9.39;100.00
11621;BME280;5866;49.094;11.900;2024-03-02T05:21:39;95220.50;;;9.46;100.00
11621;BME280;5866;49.094;11.900;2024-03-02T05:24:07;95221.88;;;9.42;100.00
11621;BME280;5866;49.094;11.900;2024-03-02T05:26:34;95216.09;;;9.38;100.00
11621;BME280;5866;49.094;11.900;2024-03-02T05:29:02;95211.13;;;9.58;100.00
11621;BME280;5866;49.094;11.900;2024-03-02T05:31:31;95214.06;;;9.63;100.00
11621;BME280;5866;49.094;11.900;2024-03-02T05:33:58;95214.41;;;9.60;100.00
11621;BME280;5866;49.094;11.900;2024-03-02T05:36:26;95217.69;;;9.62;100.00
11621;BME280;5866;49.094;11.900;2024-03-02T05:38:54;95218.72;;;9.76;100.00
11621;BME280;5866;49.094;11.900;2024-03-02T05:41:21;95214.81;;;9.86;100.00
11621;BME280;5866;49.094;11.900;2024-03-02T05:43:49;95212.50;;;9.98;100.00
11621;BME280;5866;49.094;11.900;2024-03-02T05:46:16;95211.97;;;10.02;100.00
11621;BME280;5866;49.094;11.900;2024-03-02T05:48:45;95222.19;;;9.76;100.00
11621;BME280;5866;49.094;11.900;2024-03-02T05:51:13;95220.50;;;9.46;100.00
11621;BME280;5866;49.094;11.900;2024-03-02T05:53:40;95220.00;;;9.80;100.00
11621;BME280;5866;49.094;11.900;2024-03-02T05:56:08;95219.81;;;9.81;100.00
11621;BME280;5866;49.094;11.900;2024-03-02T05:58:36;95223.19;;;9.75;100.00
11621;BME280;5866;49.094;11.900;2024-03-02T06:01:19;95221.91;;;9.71;100.00
11621;BME280;5866;49.094;11.900;2024-03-02T06:03:50;95225.06;;;9.52;100.00
11621;BME280;5866;49.094;11.900;2024-03-02T06:06:18;95224.16;;;9.59;100.00
11621;BME280;5866;49.094;11.900;2024-03-02T06:08:45;95230.28;;;9.60;100.00
11621;BME280;5866;49.094;11.900;2024-03-02T06:11:13;95224.13;;;9.45;100.00
11621;BME280;5866;49.094;11.900;2024-03-02T06:13:41;95226.97;;;9.43;100.00
11621;BME280;5866;49.094;11.900;2024-03-02T06:16:08;95222.88;;;9.55;100.00
11621;BME280;5866;49.094;11.900;2024-03-02T06:18:36;95228.84;;;9.72;100.00
11621;BME280;5866;49.094;11.900;2024-03-02T06:21:05;95226.19;;;9.72;100.00
11621;BME280;5866;49.094;11.900;2024-03-02T06:23:32;95228.06;;;9.49;100.00
11621;BME280;5866;49.094;11.900;2024-03-02T06:26:01;95231.00;;;9.54;100.00
11621;BME280;5866;49.094;11.900;2024-03-02T06:28:29;95226.28;;;9.64;100.00
11621;BME280;5866;49.094;11.900;2024-03-02T06:30:57;95226.38;;;9.71;100.00
11621;BME280;5866;49.094;11.900;2024-03-02T06:33:24;95231.44;;;9.43;100.00
11621;BME280;5866;49.094;11.900;2024-03-02T06:35:52;95229.88;;;9.34;100.00
11621;BME280;5866;49.094;11.900;2024-03-02T06:38:21;95233.94;;;9.44;100.00
11621;BME280;5866;49.094;11.900;2024-03-02T06:40:49;95239.75;;;9.40;100.00
11621;BME280;5866;49.094;11.900;2024-03-02T06:43:16;95234.38;;;9.48;100.00
11621;BME280;5866;49.094;11.900;2024-03-02T06:45:44;95234.50;;;9.69;100.00
11621;BME280;5866;49.094;11.900;2024-03-02T06:48:12;95234.09;;;9.43;100.00
11621;BME280;5866;49.094;11.900;2024-03-02T06:50:41;95231.06;;;9.31;100.00
11621;BME280;5866;49.094;11.900;2024-03-02T06:53:09;95240.13;;;9.14;100.00
11621;BME280;5866;49.094;11.900;2024-03-02T06:55:38;95240.16;;;9.29;100.00
11621;BME280;5866;49.094;11.900;2024-03-02T06:58:05;95237.97;;;9.32;100.00
11621;BME280;5866;49.094;11.900;2024-03-02T07:00:33;95237.19;;;9.32;100.00
11621;BME280;5866;49.094;11.900;2024-03-02T07:03:00;95243.75;;;9.36;100.00
11621;BME280;5866;49.094;11.900;2024-03-02T07:05:28;95238.47;;;9.36;100.00
11621;BME280;5866;49.094;11.900;2024-03-02T07:07:56;95240.59;;;9.40;100.00
11621;BME280;5866;49.094;11.900;2024-03-02T07:10:23;95243.69;;;9.44;100.00
11621;BME280;5866;49.094;11.900;2024-03-02T07:12:52;95243.25;;;9.55;100.00
11621;BME280;5866;49.094;11.900;2024-03-02T07:15:20;95243.56;;;9.37;100.00
11621;BME280;5866;49.094;11.900;2024-03-02T07:18:11;95245.09;;;9.69;100.00
11621;BME280;5866;49.094;11.900;2024-03-02T07:20:39;95250.19;;;9.19;100.00
11621;BME280;5866;49.094;11.900;2024-03-02T07:23:06;95244.34;;;9.01;100.00
11621;BME280;5866;49.094;11.900;2024-03-02T07:25:34;95247.88;;;9.16;100.00
11621;BME280;5866;49.094;11.900;2024-03-02T07:28:06;95254.47;;;8.97;100.00
11621;BME280;5866;49.094;11.900;2024-03-02T07:30:34;95251.41;;;8.86;100.00
11621;BME280;5866;49.094;11.900;2024-03-02T07:33:04;95264.63;;;8.86;100.00
11621;BME280;5866;49.094;11.900;2024-03-02T07:35:32;95262.69;;;9.02;100.00
11621;BME280;5866;49.094;11.900;2024-03-02T07:38:00;95269.88;;;8.94;100.00
11621;BME280;5866;49.094;11.900;2024-03-02T07:40:28;95263.75;;;9.16;100.00
11621;BME280;5866;49.094;11.900;2024-03-02T07:42:55;95271.75;;;9.08;100.00
11621;BME280;5866;49.094;11.900;2024-03-02T07:45:24;95279.75;;;9.22;100.00
11621;BME280;5866;49.094;11.900;2024-03-02T07:47:52;95272.72;;;9.52;100.00
11621;BME280;5866;49.094;11.900;2024-03-02T07:50:20;95276.09;;;9.46;100.00
11621;BME280;5866;49.094;11.900;2024-03-02T07:52:48;95277.91;;;9.23;100.00
11621;BME280;5866;49.094;11.900;2024-03-02T07:55:15;95279.72;;;9.45;100.00
11621;BME280;5866;49.094;11.900;2024-03-02T07:57:43;95286.63;;;9.09;100.00
11621;BME280;5866;49.094;11.900;2024-03-02T08:00:11;95284.78;;;9.09;100.00
11621;BME280;5866;49.094;11.900;2024-03-02T08:02:42;95292.31;;;8.98;100.00
11621;BME280;5866;49.094;11.900;2024-03-02T08:05:10;95295.44;;;8.70;100.00
11621;BME280;5866;49.094;11.900;2024-03-02T08:07:37;95300.47;;;8.57;100.00
11621;BME280;5866;49.094;11.900;2024-03-02T08:10:06;95312.88;;;8.88;100.00
11621;BME280;5866;49.094;11.900;2024-03-02T08:12:34;95307.66;;;8.71;100.00
11621;BME280;5866;49.094;11.900;2024-03-02T08:15:01;95306.03;;;8.70;100.00
11621;BME280;5866;49.094;11.900;2024-03-02T08:17:29;95312.13;;;8.71;100.00
11621;BME280;5866;49.094;11.900;2024-03-02T08:20:01;95300.50;;;8.49;100.00
11621;BME280;5866;49.094;11.900;2024-03-02T08:22:29;95309.28;;;8.34;100.00
11621;BME280;5866;49.094;11.900;2024-03-02T08:24:56;95311.09;;;8.41;100.00
11621;BME280;5866;49.094;11.900;2024-03-02T08:27:25;95318.38;;;8.39;100.00
11621;BME280;5866;49.094;11.900;2024-03-02T08:29:52;95326.34;;;8.15;100.00
11621;BME280;5866;49.094;11.900;2024-03-02T08:32:20;95321.69;;;8.17;100.00
11621;BME280;5866;49.094;11.900;2024-03-02T08:34:48;95323.31;;;8.42;100.00
11621;BME280;5866;49.094;11.900;2024-03-02T08:37:17;95328.59;;;8.50;100.00
11621;BME280;5866;49.094;11.900;2024-03-02T08:39:45;95323.63;;;8.47;100.00
11621;BME280;5866;49.094;11.900;2024-03-02T08:42:13;95320.75;;;8.65;100.00
11621;BME280;5866;49.094;11.900;2024-03-02T08:44:40;95326.19;;;9.02;100.00
11621;BME280;5866;49.094;11.900;2024-03-02T08:47:08;95318.75;;;8.98;100.00
11621;BME280;5866;49.094;11.900;2024-03-02T08:49:35;95315.00;;;8.92;100.00
11621;BME280;5866;49.094;11.900;2024-03-02T08:52:03;95319.53;;;9.06;100.00
11621;BME280;5866;49.094;11.900;2024-03-02T08:54:32;95323.53;;;9.25;100.00
11621;BME280;5866;49.094;11.900;2024-03-02T08:57:02;95329.53;;;8.88;100.00
11621;BME280;5866;49.094;11.900;2024-03-02T08:59:30;95331.84;;;8.60;100.00
11621;BME280;5866;49.094;11.900;2024-03-02T09:01:58;95333.53;;;8.45;100.00
11621;BME280;5866;49.094;11.900;2024-03-02T09:04:27;95334.31;;;8.62;100.00
11621;BME280;5866;49.094;11.900;2024-03-02T09:07:00;95339.41;;;8.63;100.00
11621;BME280;5866;49.094;11.900;2024-03-02T09:09:27;95339.03;;;8.74;100.00
11621;BME280;5866;49.094;11.900;2024-03-02T09:11:56;95329.91;;;8.85;100.00
11621;BME280;5866;49.094;11.900;2024-03-02T09:14:24;95328.19;;;8.61;100.00
11621;BME280;5866;49.094;11.900;2024-03-02T09:16:52;95332.22;;;8.49;100.00
11621;BME280;5866;49.094;11.900;2024-03-02T09:19:20;95331.88;;;8.44;100.00
11621;BME280;5866;49.094;11.900;2024-03-02T09:21:47;95337.75;;;8.70;100.00
11621;BME280;5866;49.094;11.900;2024-03-02T09:24:16;95332.44;;;9.01;100.00
11621;BME280;5866;49.094;11.900;2024-03-02T09:26:44;95325.59;;;9.60;100.00
11621;BME280;5866;49.094;11.900;2024-03-02T09:29:13;95330.06;;;9.59;100.00
11621;BME280;5866;49.094;11.900;2024-03-02T09:31:41;95333.72;;;9.36;100.00
11621;BME280;5866;49.094;11.900;2024-03-02T09:34:09;95339.22;;;9.04;100.00
11621;BME280;5866;49.094;11.900;2024-03-02T09:36:36;95336.31;;;9.21;100.00
11621;BME280;5866;49.094;11.900;2024-03-02T09:39:04;95336.31;;;9.21;100.00
11621;BME280;5866;49.094;11.900;2024-03-02T09:41:33;95335.28;;;9.22;100.00
11621;BME280;5866;49.094;11.900;2024-03-02T09:44:01;95330.59;;;9.32;100.00
11621;BME280;5866;49.094;11.900;2024-03-02T09:46:30;95328.72;;;9.41;100.00
11621;BME280;5866;49.094;11.900;2024-03-02T09:48:57;95321.47;;;9.80;100.00
11621;BME280;5866;49.094;11.900;2024-03-02T09:51:26;95331.25;;;9.94;100.00
11621;BME280;5866;49.094;11.900;2024-03-02T09:53:54;95323.81;;;10.12;100.00
11621;BME280;5866;49.094;11.900;2024-03-02T09:56:38;95327.50;;;10.03;100.00
11621;BME280;5866;49.094;11.900;2024-03-02T09:59:06;95328.97;;;10.06;100.00
11621;BME280;5866;49.094;11.900;2024-03-02T10:01:35;95318.09;;;10.38;100.00
11621;BME280;5866;49.094;11.900;2024-03-02T10:04:03;95316.38;;;10.81;100.00
11621;BME280;5866;49.094;11.900;2024-03-02T10:06:32;95315.09;;;10.91;100.00
11621;BME280;5866;49.094;11.900;2024-03-02T10:09:00;95313.94;;;11.15;100.00
11621;BME280;5866;49.094;11.900;2024-03-02T10:11:29;95310.19;;;11.45;100.00
11621;BME280;5866;49.094;11.900;2024-03-02T10:14:07;95303.41;;;11.64;100.00
11621;BME280;5866;49.094;11.900;2024-03-02T10:16:37;95307.84;;;11.78;100.00
11621;BME280;5866;49.094;11.900;2024-03-02T10:19:18;95309.78;;;11.48;100.00
11621;BME280;5866;49.094;11.900;2024-03-02T10:21:46;95308.63;;;11.15;100.00
11621;BME280;5866;49.094;11.900;2024-03-02T10:24:14;95307.13;;;11.27;100.00
11621;BME280;5866;49.094;11.900;2024-03-02T10:26:42;95306.38;;;11.12;100.00
11621;BME280;5866;49.094;11.900;2024-03-02T10:29:10;95297.03;;;11.37;100.00
11621;BME280;5866;49.094;11.900;2024-03-02T10:31:40;95301.81;;;11.27;100.00
11621;BME280;5866;49.094;11.900;2024-03-02T10:34:10;95301.13;;;10.83;100.00
11621;BME280;5866;49.094;11.900;2024-03-02T10:36:41;95303.19;;;11.23;100.00
11621;BME280;5866;49.094;11.900;2024-03-02T10:39:09;95302.31;;;11.58;100.00
11621;BME280;5866;49.094;11.900;2024-03-02T10:41:38;95300.81;;;11.49;100.00
11621;BME280;5866;49.094;11.900;2024-03-02T10:44:07;95292.59;;;11.44;100.00
11621;BME280;5866;49.094;11.900;2024-03-02T10:46:36;95293.63;;;11.43;100.00
11621;BME280;5866;49.094;11.900;2024-03-02T10:49:05;95287.53;;;11.28;100.00
11621;BME280;5866;49.094;11.900;2024-03-02T10:51:35;95280.34;;;11.64;100.00
11621;BME280;5866;49.094;11.900;2024-03-02T10:54:04;95277.31;;;11.67;100.00
11621;BME280;5866;49.094;11.900;2024-03-02T10:56:34;95281.97;;;11.44;100.00
11621;BME280;5866;49.094;11.900;2024-03-02T10:59:16;95273.13;;;11.16;100.00
11621;BME280;5866;49.094;11.900;2024-03-02T11:01:47;95279.19;;;11.10;100.00
11621;BME280;5866;49.094;11.900;2024-03-02T11:04:18;95277.19;;;11.12;100.00
11621;BME280;5866;49.094;11.900;2024-03-02T11:06:48;95265.34;;;11.57;100.00
11621;BME280;5866;49.094;11.900;2024-03-02T11:09:19;95269.03;;;11.56;100.00
11621;BME280;5866;49.094;11.900;2024-03-02T11:11:54;95260.19;;;11.70;100.00
11621;BME280;5866;49.094;11.900;2024-03-02T11:14:24;95259.34;;;11.69;100.00
11621;BME280;5866;49.094;11.900;2024-03-02T11:16:52;95257.13;;;12.01;100.00
11621;BME280;5866;49.094;11.900;2024-03-02T11:19:22;95264.47;;;11.71;100.00
11621;BME280;5866;49.094;11.900;2024-03-02T11:21:51;95261.63;;;11.51;100.00
11621;BME280;5866;49.094;11.900;2024-03-02T11:24:29;95249.28;;;11.44;100.00
11621;BME280;5866;49.094;11.900;2024-03-02T11:27:05;95248.84;;;11.61;100.00
11621;BME280;5866;49.094;11.900;2024-03-02T11:29:43;95242.31;;;11.64;100.00
11621;BME280;5866;49.094;11.900;2024-03-02T11:32:20;95239.19;;;12.09;100.00
11621;BME280;5866;49.094;11.900;2024-03-02T11:34:50;95235.84;;;12.01;100.00
11621;BME280;5866;49.094;11.900;2024-03-02T11:37:19;95229.81;;;11.79;100.00
11621;BME280;5866;49.094;11.900;2024-03-02T11:39:50;95229.66;;;11.87;100.00
11621;BME280;5866;49.094;11.900;2024-03-02T11:42:17;95236.91;;;12.00;100.00
11621;BME280;5866;49.094;11.900;2024-03-02T11:44:46;95223.09;;;12.58;100.00
11621;BME280;5866;49.094;11.900;2024-03-02T11:47:15;95223.31;;;12.22;100.00
11621;BME280;5866;49.094;11.900;2024-03-02T11:49:45;95223.13;;;12.24;100.00
11621;BME280;5866;49.094;11.900;2024-03-02T11:52:15;95222.81;;;12.06;100.00
11621;BME280;5866;49.094;11.900;2024-03-02T11:54:45;95213.44;;;12.10;100.00
11621;BME280;5866;49.094;11.900;2024-03-02T11:57:19;95220.16;;;12.06;100.00
11621;BME280;5866;49.094;11.900;2024-03-02T11:59:49;95219.69;;;11.95;100.00
11621;BME280;5866;49.094;11.900;2024-03-02T12:02:18;95209.50;;;11.99;100.00
11621;BME280;5866;49.094;11.900;2024-03-02T12:04:46;95208.75;;;12.12;100.00
11621;BME280;5866;49.094;11.900;2024-03-02T12:07:20;95197.91;;;12.13;100.00
11621;BME280;5866;49.094;11.900;2024-03-02T12:09:48;95202.44;;;12.13;100.00
11621;BME280;5866;49.094;11.900;2024-03-02T12:12:16;95208.34;;;11.80;100.00
11621;BME280;5866;49.094;11.900;2024-03-02T12:14:50;95203.81;;;11.74;100.00
11621;BME280;5866;49.094;11.900;2024-03-02T12:17:19;95209.28;;;12.01;100.00
11621;BME280;5866;49.094;11.900;2024-03-02T12:19:46;95198.88;;;12.40;100.00
11621;BME280;5866;49.094;11.900;2024-03-02T12:22:14;95192.47;;;12.75;100.00
11621;BME280;5866;49.094;11.900;2024-03-02T12:24:44;95189.41;;;12.31;100.00
11621;BME280;5866;49.094;11.900;2024-03-02T12:27:13;95178.97;;;12.83;100.00
11621;BME280;5866;49.094;11.900;2024-03-02T12:29:42;95182.19;;;12.65;100.00
11621;BME280;5866;49.094;11.900;2024-03-02T12:32:10;95178.63;;;13.12;98.28
11621;BME280;5866;49.094;11.900;2024-03-02T12:34:38;95172.47;;;13.05;92.81
11621;BME280;5866;49.094;11.900;2024-03-02T12:37:06;95169.94;;;12.84;96.75
11621;BME280;5866;49.094;11.900;2024-03-02T12:39:33;95170.06;;;13.17;95.92
11621;BME280;5866;49.094;11.900;2024-03-02T12:42:03;95159.75;;;12.94;94.37
11621;BME280;5866;49.094;11.900;2024-03-02T12:44:30;95161.03;;;13.05;96.21
11621;BME280;5866;49.094;11.900;2024-03-02T12:46:58;95163.50;;;13.45;92.21
11621;BME280;5866;49.094;11.900;2024-03-02T12:49:27;95152.84;;;13.65;91.44
11621;BME280;5866;49.094;11.900;2024-03-02T12:51:57;95154.69;;;13.51;88.64
11621;BME280;5866;49.094;11.900;2024-03-02T12:54:25;95149.97;;;13.08;90.07
11621;BME280;5866;49.094;11.900;2024-03-02T12:56:53;95153.53;;;12.54;96.17
11621;BME280;5866;49.094;11.900;2024-03-02T12:59:24;95145.91;;;12.45;97.56
11621;BME280;5866;49.094;11.900;2024-03-02T13:01:54;95146.25;;;13.02;96.45
11621;BME280;5866;49.094;11.900;2024-03-02T13:04:24;95146.06;;;13.63;89.76
11621;BME280;5866;49.094;11.900;2024-03-02T13:06:52;95135.44;;;14.33;84.02